Canaan, New York
Current Conditions -  °F | °C
As of 12:54 AM on Thursday 23 Oct 2014 (Local Time) from KPSF Reporting Station
Heavy Rain Heavy Rain  
Wind Chill: 43°   Ceiling: 2000
Heat Index: 47°   Visibility: 5mi
Dew Point: 45°   Wind: 9mph
Humidity: 93%   Direction: 50°NE
Pressure: 29.86"   Gusts: 17mph
Location:  42.41°N, 73.45°W
Report Text: KPSF 230454Z AUTO 05008G15KT 5SM +RA BR SCT015 BKN020 OVC043 08/07 A2986 RMK AO2 SLP106 P0015 T00830072 401060083
Loading
Personal Weather Stations






























Interactive Weather Map
Tropical Storm Tracking
New forecast layout! Learn more

10-Day Weather Forecast

Advertisements
Track Severe Weather on mobile